sensor_id;sensor_type;location;lat;lon;timestamp;pressure;altitude;pressure_sealevel;temperature;humidity
20368;BME280;10343;52.402;9.796;2022-12-07T00:01:42;100862.81;;;5.33;100.00
20368;BME280;10343;52.402;9.796;2022-12-07T00:04:13;100862.78;;;5.27;100.00
20368;BME280;10343;52.402;9.796;2022-12-07T00:06:43;100853.16;;;5.31;100.00
20368;BME280;10343;52.402;9.796;2022-12-07T00:09:13;100854.88;;;5.32;100.00
20368;BME280;10343;52.402;9.796;2022-12-07T00:11:41;100848.78;;;5.30;100.00
20368;BME280;10343;52.402;9.796;2022-12-07T00:14:12;100849.63;;;5.32;100.00
20368;BME280;10343;52.402;9.796;2022-12-07T00:16:43;100850.53;;;5.37;100.00
20368;BME280;10343;52.402;9.796;2022-12-07T00:19:12;100829.50;;;5.49;100.00
20368;BME280;10343;52.402;9.796;2022-12-07T00:21:41;100830.34;;;5.47;100.00
20368;BME280;10343;52.402;9.796;2022-12-07T00:24:10;100831.25;;;5.52;100.00
20368;BME280;10343;52.402;9.796;2022-12-07T00:26:40;100827.75;;;5.45;99.99
20368;BME280;10343;52.402;9.796;2022-12-07T00:29:12;100825.97;;;5.56;99.47
20368;BME280;10343;52.402;9.796;2022-12-07T00:31:42;100826.88;;;5.46;100.00
20368;BME280;10343;52.402;9.796;2022-12-07T00:34:13;100825.13;;;5.53;99.61
20368;BME280;10343;52.402;9.796;2022-12-07T00:36:41;100811.97;;;5.54;99.80
20368;BME280;10343;52.402;9.796;2022-12-07T00:39:10;100820.75;;;5.47;99.85
20368;BME280;10343;52.402;9.796;2022-12-07T00:41:38;100826.88;;;5.57;99.60
20368;BME280;10343;52.402;9.796;2022-12-07T00:44:06;100818.09;;;5.55;99.89
20368;BME280;10343;52.402;9.796;2022-12-07T00:46:33;100817.22;;;5.53;99.83
20368;BME280;10343;52.402;9.796;2022-12-07T00:49:03;100807.56;;;5.52;100.00
20368;BME280;10343;52.402;9.796;2022-12-07T00:51:31;100808.47;;;5.58;99.69
20368;BME280;10343;52.402;9.796;2022-12-07T00:53:59;100816.34;;;5.48;99.93
20368;BME280;10343;52.402;9.796;2022-12-07T00:56:28;100805.84;;;5.54;99.86
20368;BME280;10343;52.402;9.796;2022-12-07T00:58:58;100804.94;;;5.50;100.00
20368;BME280;10343;52.402;9.796;2022-12-07T01:01:28;100798.81;;;5.45;100.00
20368;BME280;10343;52.402;9.796;2022-12-07T01:03:57;100806.69;;;5.33;100.00
20368;BME280;10343;52.402;9.796;2022-12-07T01:06:27;100806.69;;;5.30;100.00
20368;BME280;10343;52.402;9.796;2022-12-07T01:08:55;100807.59;;;5.38;100.00
20368;BME280;10343;52.402;9.796;2022-12-07T01:11:27;100797.06;;;5.47;100.00
20368;BME280;10343;52.402;9.796;2022-12-07T01:13:57;100796.19;;;5.42;100.00
20368;BME280;10343;52.402;9.796;2022-12-07T01:16:29;100797.94;;;5.40;100.00
20368;BME280;10343;52.402;9.796;2022-12-07T01:18:58;100807.59;;;5.47;100.00
20368;BME280;10343;52.402;9.796;2022-12-07T01:21:30;100799.69;;;5.38;100.00
20368;BME280;10343;52.402;9.796;2022-12-07T01:24:01;100807.56;;;5.53;100.00
20368;BME280;10343;52.402;9.796;2022-12-07T01:26:30;100799.69;;;5.47;100.00
20368;BME280;10343;52.402;9.796;2022-12-07T01:28:58;100804.09;;;5.37;100.00
20368;BME280;10343;52.402;9.796;2022-12-07T01:31:28;100792.69;;;5.46;100.00
20368;BME280;10343;52.402;9.796;2022-12-07T01:33:58;100799.66;;;5.56;100.00
20368;BME280;10343;52.402;9.796;2022-12-07T01:36:29;100801.47;;;5.51;100.00
20368;BME280;10343;52.402;9.796;2022-12-07T01:38:59;100786.53;;;5.50;100.00
20368;BME280;10343;52.402;9.796;2022-12-07T01:41:30;100791.81;;;5.52;100.00
20368;BME280;10343;52.402;9.796;2022-12-07T01:44:10;100790.03;;;5.38;100.00
20368;BME280;10343;52.402;9.796;2022-12-07T01:46:39;100784.78;;;5.52;100.00
20368;BME280;10343;52.402;9.796;2022-12-07T01:49:10;100785.66;;;5.54;100.00
20368;BME280;10343;52.402;9.796;2022-12-07T01:51:42;100776.88;;;5.40;100.00
20368;BME280;10343;52.402;9.796;2022-12-07T01:54:12;100771.66;;;5.34;100.00
20368;BME280;10343;52.402;9.796;2022-12-07T01:56:45;100772.53;;;5.43;100.00
20368;BME280;10343;52.402;9.796;2022-12-07T01:59:18;100777.75;;;5.08;100.00
20368;BME280;10343;52.402;9.796;2022-12-07T02:01:47;100776.91;;;5.06;100.00
20368;BME280;10343;52.402;9.796;2022-12-07T02:04:16;100789.16;;;5.04;100.00
20368;BME280;10343;52.402;9.796;2022-12-07T02:06:46;100785.63;;;4.96;100.00
20368;BME280;10343;52.402;9.796;2022-12-07T02:09:15;100788.25;;;4.79;100.00
20368;BME280;10343;52.402;9.796;2022-12-07T02:11:43;100781.25;;;4.88;100.00
20368;BME280;10343;52.402;9.796;2022-12-07T02:14:11;100775.13;;;5.05;100.00
20368;BME280;10343;52.402;9.796;2022-12-07T02:16:47;100774.25;;;4.90;100.00
20368;BME280;10343;52.402;9.796;2022-12-07T02:19:49;100769.00;;;4.78;100.00
20368;BME280;10343;52.402;9.796;2022-12-07T02:22:41;100765.47;;;4.81;100.00
20368;BME280;10343;52.402;9.796;2022-12-07T02:25:21;100778.59;;;4.76;100.00
20368;BME280;10343;52.402;9.796;2022-12-07T02:27:53;100776.88;;;4.81;100.00
20368;BME280;10343;52.402;9.796;2022-12-07T02:30:28;100776.88;;;4.78;100.00
20368;BME280;10343;52.402;9.796;2022-12-07T02:33:00;100763.69;;;4.75;100.00
20368;BME280;10343;52.402;9.796;2022-12-07T02:35:35;100755.84;;;4.84;100.00
20368;BME280;10343;52.402;9.796;2022-12-07T02:38:13;100759.38;;;4.99;100.00
20368;BME280;10343;52.402;9.796;2022-12-07T02:40:47;100760.22;;;4.87;100.00
20368;BME280;10343;52.402;9.796;2022-12-07T02:43:18;100764.59;;;4.80;100.00
20368;BME280;10343;52.402;9.796;2022-12-07T02:45:50;100754.97;;;4.76;100.00
20368;BME280;10343;52.402;9.796;2022-12-07T02:48:20;100754.06;;;4.71;100.00
20368;BME280;10343;52.402;9.796;2022-12-07T02:50:49;100758.44;;;4.66;100.00
20368;BME280;10343;52.402;9.796;2022-12-07T02:53:31;100759.31;;;4.65;100.00
20368;BME280;10343;52.402;9.796;2022-12-07T02:56:03;100752.34;;;4.82;100.00
20368;BME280;10343;52.402;9.796;2022-12-07T02:58:41;100754.09;;;4.83;100.00
20368;BME280;10343;52.402;9.796;2022-12-07T03:01:23;100749.75;;;4.95;100.00
20368;BME280;10343;52.402;9.796;2022-12-07T03:04:04;100759.31;;;4.62;100.00
20368;BME280;10343;52.402;9.796;2022-12-07T03:06:38;100752.31;;;4.67;100.00
20368;BME280;10343;52.402;9.796;2022-12-07T03:09:15;100754.13;;;4.88;100.00
20368;BME280;10343;52.402;9.796;2022-12-07T03:11:49;100750.63;;;4.92;100.00
20368;BME280;10343;52.402;9.796;2022-12-07T03:14:22;100742.72;;;4.93;100.00
20368;BME280;10343;52.402;9.796;2022-12-07T03:16:55;100739.22;;;4.88;100.00
20368;BME280;10343;52.402;9.796;2022-12-07T03:19:26;100750.59;;;4.81;100.00
20368;BME280;10343;52.402;9.796;2022-12-07T03:21:57;100733.97;;;5.16;100.00
20368;BME280;10343;52.402;9.796;2022-12-07T03:24:29;100730.47;;;5.17;100.00
20368;BME280;10343;52.402;9.796;2022-12-07T03:27:03;100730.47;;;4.94;100.00
20368;BME280;10343;52.402;9.796;2022-12-07T03:29:36;100727.84;;;4.92;100.00
20368;BME280;10343;52.402;9.796;2022-12-07T03:32:08;100730.47;;;5.02;100.00
20368;BME280;10343;52.402;9.796;2022-12-07T03:34:41;100723.44;;;5.05;100.00
20368;BME280;10343;52.402;9.796;2022-12-07T03:37:16;100730.47;;;4.86;100.00
20368;BME280;10343;52.402;9.796;2022-12-07T03:39:51;100726.06;;;4.73;100.00
20368;BME280;10343;52.402;9.796;2022-12-07T03:42:25;100729.59;;;4.81;100.00
20368;BME280;10343;52.402;9.796;2022-12-07T03:44:54;100733.06;;;4.83;100.00
20368;BME280;10343;52.402;9.796;2022-12-07T03:47:27;100732.19;;;4.87;100.00
20368;BME280;10343;52.402;9.796;2022-12-07T03:50:00;100734.81;;;4.75;100.00
20368;BME280;10343;52.402;9.796;2022-12-07T03:52:33;100734.81;;;4.73;100.00
20368;BME280;10343;52.402;9.796;2022-12-07T03:55:07;100737.47;;;4.78;100.00
20368;BME280;10343;52.402;9.796;2022-12-07T03:57:37;100733.94;;;4.71;100.00
20368;BME280;10343;52.402;9.796;2022-12-07T04:00:09;100742.69;;;4.70;100.00
20368;BME280;10343;52.402;9.796;2022-12-07T04:02:41;100747.06;;;4.67;100.00
20368;BME280;10343;52.402;9.796;2022-12-07T04:05:10;100748.88;;;4.86;100.00
20368;BME280;10343;52.402;9.796;2022-12-07T04:07:38;100750.59;;;4.78;100.00
20368;BME280;10343;52.402;9.796;2022-12-07T04:10:07;100751.47;;;4.82;100.00
20368;BME280;10343;52.402;9.796;2022-12-07T04:12:35;100743.56;;;4.83;100.00
20368;BME280;10343;52.402;9.796;2022-12-07T04:15:03;100755.81;;;4.72;100.00
20368;BME280;10343;52.402;9.796;2022-12-07T04:17:32;100747.94;;;4.76;100.00
20368;BME280;10343;52.402;9.796;2022-12-07T04:20:01;100754.94;;;4.65;100.00
20368;BME280;10343;52.402;9.796;2022-12-07T04:22:30;100750.63;;;4.93;100.00
20368;BME280;10343;52.402;9.796;2022-12-07T04:24:58;100755.84;;;4.84;100.00
20368;BME280;10343;52.402;9.796;2022-12-07T04:27:26;100751.50;;;4.99;100.00
20368;BME280;10343;52.402;9.796;2022-12-07T04:29:54;100740.09;;;4.90;100.00
20368;BME280;10343;52.402;9.796;2022-12-07T04:32:23;100745.34;;;4.81;100.00
20368;BME280;10343;52.402;9.796;2022-12-07T04:34:51;100743.63;;;4.99;100.00
20368;BME280;10343;52.402;9.796;2022-12-07T04:37:23;100738.34;;;4.89;100.00
20368;BME280;10343;52.402;9.796;2022-12-07T04:39:51;100742.72;;;4.87;100.00
20368;BME280;10343;52.402;9.796;2022-12-07T04:42:19;100734.84;;;4.90;100.00
20368;BME280;10343;52.402;9.796;2022-12-07T04:44:46;100738.31;;;4.83;100.00
20368;BME280;10343;52.402;9.796;2022-12-07T04:47:14;100732.22;;;4.92;100.00
20368;BME280;10343;52.402;9.796;2022-12-07T04:49:43;100728.72;;;4.96;100.00
20368;BME280;10343;52.402;9.796;2022-12-07T04:52:10;100728.72;;;4.85;100.00
20368;BME280;10343;52.402;9.796;2022-12-07T04:54:40;100723.47;;;4.82;100.00
20368;BME280;10343;52.402;9.796;2022-12-07T04:57:08;100731.34;;;4.95;100.00
20368;BME280;10343;52.402;9.796;2022-12-07T04:59:36;100733.03;;;4.58;100.00
20368;BME280;10343;52.402;9.796;2022-12-07T05:02:11;100733.94;;;4.59;100.00
20368;BME280;10343;52.402;9.796;2022-12-07T05:04:39;100729.53;;;4.59;100.00
20368;BME280;10343;52.402;9.796;2022-12-07T05:07:07;100727.81;;;4.68;100.00
20368;BME280;10343;52.402;9.796;2022-12-07T05:09:35;100733.06;;;4.63;100.00
20368;BME280;10343;52.402;9.796;2022-12-07T05:12:04;100726.03;;;4.67;100.00
20368;BME280;10343;52.402;9.796;2022-12-07T05:14:32;100734.78;;;4.59;100.00
20368;BME280;10343;52.402;9.796;2022-12-07T05:17:00;100727.81;;;4.62;100.00
20368;BME280;10343;52.402;9.796;2022-12-07T05:19:28;100726.88;;;4.50;100.00
20368;BME280;10343;52.402;9.796;2022-12-07T05:21:56;100730.41;;;4.51;100.00
20368;BME280;10343;52.402;9.796;2022-12-07T05:24:23;100728.59;;;4.39;100.00
20368;BME280;10343;52.402;9.796;2022-12-07T05:26:52;100729.47;;;4.38;100.00
20368;BME280;10343;52.402;9.796;2022-12-07T05:29:21;100729.53;;;4.58;100.00
20368;BME280;10343;52.402;9.796;2022-12-07T05:31:49;100727.75;;;4.35;100.00
20368;BME280;10343;52.402;9.796;2022-12-07T05:34:17;100733.81;;;4.20;100.00
20368;BME280;10343;52.402;9.796;2022-12-07T05:36:45;100733.00;;;4.37;100.00
20368;BME280;10343;52.402;9.796;2022-12-07T05:39:13;100733.84;;;4.33;100.00
20368;BME280;10343;52.402;9.796;2022-12-07T05:41:42;100731.19;;;4.30;100.00
20368;BME280;10343;52.402;9.796;2022-12-07T05:44:29;100736.47;;;4.42;100.00
20368;BME280;10343;52.402;9.796;2022-12-07T05:46:57;100745.22;;;4.35;100.00
20368;BME280;10343;52.402;9.796;2022-12-07T05:49:25;100734.75;;;4.46;100.00
20368;BME280;10343;52.402;9.796;2022-12-07T05:51:53;100740.00;;;4.41;100.00
20368;BME280;10343;52.402;9.796;2022-12-07T05:54:21;100737.38;;;4.50;100.00
20368;BME280;10343;52.402;9.796;2022-12-07T05:56:51;100743.53;;;4.55;99.62
20368;BME280;10343;52.402;9.796;2022-12-07T05:59:19;100726.91;;;4.56;99.16
20368;BME280;10343;52.402;9.796;2022-12-07T06:01:56;100727.81;;;4.60;100.00
20368;BME280;10343;52.402;9.796;2022-12-07T06:04:27;100717.28;;;4.51;99.83
20368;BME280;10343;52.402;9.796;2022-12-07T06:06:56;100724.22;;;4.35;100.00
20368;BME280;10343;52.402;9.796;2022-12-07T06:09:26;100734.75;;;4.47;99.60
20368;BME280;10343;52.402;9.796;2022-12-07T06:11:55;100733.91;;;4.50;99.75
20368;BME280;10343;52.402;9.796;2022-12-07T06:14:42;100726.00;;;4.51;100.00
20368;BME280;10343;52.402;9.796;2022-12-07T06:17:12;100738.34;;;4.77;98.44
20368;BME280;10343;52.402;9.796;2022-12-07T06:19:45;100735.69;;;4.68;98.12
20368;BME280;10343;52.402;9.796;2022-12-07T06:22:13;100731.28;;;4.67;98.12
20368;BME280;10343;52.402;9.796;2022-12-07T06:24:42;100739.16;;;4.68;97.72
20368;BME280;10343;52.402;9.796;2022-12-07T06:27:11;100733.91;;;4.65;97.80
20368;BME280;10343;52.402;9.796;2022-12-07T06:29:40;100727.81;;;4.68;97.37
20368;BME280;10343;52.402;9.796;2022-12-07T06:32:08;100729.53;;;4.63;96.92
20368;BME280;10343;52.402;9.796;2022-12-07T06:34:38;100731.28;;;4.67;97.27
20368;BME280;10343;52.402;9.796;2022-12-07T06:37:06;100733.94;;;4.71;97.57
20368;BME280;10343;52.402;9.796;2022-12-07T06:39:34;100729.53;;;4.63;97.73
20368;BME280;10343;52.402;9.796;2022-12-07T06:42:02;100736.56;;;4.56;98.03
20368;BME280;10343;52.402;9.796;2022-12-07T06:44:31;100733.00;;;4.46;97.69
20368;BME280;10343;52.402;9.796;2022-12-07T06:46:59;100738.31;;;4.62;98.13
20368;BME280;10343;52.402;9.796;2022-12-07T06:49:50;100745.25;;;4.41;98.36
20368;BME280;10343;52.402;9.796;2022-12-07T06:52:18;100738.28;;;4.49;98.35
20368;BME280;10343;52.402;9.796;2022-12-07T06:54:46;100741.78;;;4.48;97.68
20368;BME280;10343;52.402;9.796;2022-12-07T06:57:15;100740.00;;;4.50;98.81
20368;BME280;10343;52.402;9.796;2022-12-07T06:59:44;100731.28;;;4.57;98.01
20368;BME280;10343;52.402;9.796;2022-12-07T07:02:12;100735.63;;;4.46;97.55
20368;BME280;10343;52.402;9.796;2022-12-07T07:04:40;100747.03;;;4.48;97.83
20368;BME280;10343;52.402;9.796;2022-12-07T07:07:12;100738.25;;;4.37;97.92
20368;BME280;10343;52.402;9.796;2022-12-07T07:09:41;100727.69;;;4.29;99.61
20368;BME280;10343;52.402;9.796;2022-12-07T07:12:09;100738.22;;;4.34;100.00
20368;BME280;10343;52.402;9.796;2022-12-07T07:14:38;100739.97;;;4.38;99.42
20368;BME280;10343;52.402;9.796;2022-12-07T07:17:06;100744.34;;;4.37;99.44
20368;BME280;10343;52.402;9.796;2022-12-07T07:19:34;100746.13;;;4.35;99.27
20368;BME280;10343;52.402;9.796;2022-12-07T07:22:04;100748.69;;;4.24;99.63
20368;BME280;10343;52.402;9.796;2022-12-07T07:24:35;100752.13;;;4.08;100.00
20368;BME280;10343;52.402;9.796;2022-12-07T07:27:04;100760.09;;;4.31;99.08
20368;BME280;10343;52.402;9.796;2022-12-07T07:38:46;100760.97;;;4.35;97.72
20368;BME280;10343;52.402;9.796;2022-12-07T08:28:52;100764.63;;;4.86;92.89
20368;BME280;10343;52.402;9.796;2022-12-07T08:31:56;100775.06;;;4.65;93.91
20368;BME280;10343;52.402;9.796;2022-12-07T08:35:27;100771.59;;;4.67;95.39
20368;BME280;10343;52.402;9.796;2022-12-07T08:37:59;100773.38;;;4.84;94.96
20368;BME280;10343;52.402;9.796;2022-12-07T08:40:29;100763.75;;;5.04;94.32
20368;BME280;10343;52.402;9.796;2022-12-07T08:43:02;100770.75;;;5.16;93.44
20368;BME280;10343;52.402;9.796;2022-12-07T08:45:47;100763.78;;;5.20;92.00
20368;BME280;10343;52.402;9.796;2022-12-07T10:18:17;100753.94;;;6.28;81.62
20368;BME280;10343;52.402;9.796;2022-12-07T10:21:03;100760.97;;;6.29;83.03
20368;BME280;10343;52.402;9.796;2022-12-07T10:23:33;100749.44;;;6.49;82.00
20368;BME280;10343;52.402;9.796;2022-12-07T10:26:25;100752.19;;;6.26;81.60
20368;BME280;10343;52.402;9.796;2022-12-07T10:28:55;100749.63;;;6.12;83.84
20368;BME280;10343;52.402;9.796;2022-12-07T10:31:24;100754.88;;;6.07;84.74
20368;BME280;10343;52.402;9.796;2022-12-07T10:37:17;100762.00;;;5.53;87.86
20368;BME280;10343;52.402;9.796;2022-12-07T10:39:53;100754.09;;;5.64;88.08
20368;BME280;10343;52.402;9.796;2022-12-07T10:42:27;100748.78;;;5.85;87.16
20368;BME280;10343;52.402;9.796;2022-12-07T10:45:07;100747.94;;;5.65;86.87
20368;BME280;10343;52.402;9.796;2022-12-07T10:47:41;100754.03;;;5.85;87.04
20368;BME280;10343;52.402;9.796;2022-12-07T10:50:29;100748.75;;;5.94;85.58
20368;BME280;10343;52.402;9.796;2022-12-07T10:56:26;100746.16;;;5.79;87.30
20368;BME280;10343;52.402;9.796;2022-12-07T10:59:08;100747.13;;;5.35;88.16
20368;BME280;10343;52.402;9.796;2022-12-07T11:01:47;100741.84;;;5.44;91.88
20368;BME280;10343;52.402;9.796;2022-12-07T11:04:24;100738.34;;;5.30;91.78
20368;BME280;10343;52.402;9.796;2022-12-07T11:07:02;100733.97;;;5.47;92.30
20368;BME280;10343;52.402;9.796;2022-12-07T11:09:49;100735.72;;;5.50;92.83
20368;BME280;10343;52.402;9.796;2022-12-07T11:12:51;100743.59;;;5.40;91.47
20368;BME280;10343;52.402;9.796;2022-12-07T11:15:26;100743.63;;;5.26;90.88
20368;BME280;10343;52.402;9.796;2022-12-07T11:18:04;100751.50;;;5.05;91.20
20368;BME280;10343;52.402;9.796;2022-12-07T11:20:41;100759.38;;;4.86;91.21
20368;BME280;10343;52.402;9.796;2022-12-07T11:23:18;100742.63;;;4.49;93.76
20368;BME280;10343;52.402;9.796;2022-12-07T11:25:54;100758.38;;;4.44;96.74
20368;BME280;10343;52.402;9.796;2022-12-07T11:28:41;100766.13;;;4.12;95.51
20368;BME280;10343;52.402;9.796;2022-12-07T11:31:23;100747.75;;;4.12;100.00
20368;BME280;10343;52.402;9.796;2022-12-07T11:34:00;100751.28;;;4.11;100.00
20368;BME280;10343;52.402;9.796;2022-12-07T11:36:38;100746.75;;;3.86;100.00
20368;BME280;10343;52.402;9.796;2022-12-07T11:39:22;100742.53;;;4.18;100.00
20368;BME280;10343;52.402;9.796;2022-12-07T11:42:00;100729.31;;;4.01;100.00
20368;BME280;10343;52.402;9.796;2022-12-07T11:44:38;100732.09;;;4.29;100.00
20368;BME280;10343;52.402;9.796;2022-12-07T11:47:10;100718.97;;;4.35;100.00
20368;BME280;10343;52.402;9.796;2022-12-07T11:49:46;100720.75;;;4.45;100.00
20368;BME280;10343;52.402;9.796;2022-12-07T11:52:22;100726.88;;;4.47;100.00
20368;BME280;10343;52.402;9.796;2022-12-07T11:54:53;100726.00;;;4.45;100.00
20368;BME280;10343;52.402;9.796;2022-12-07T11:57:27;100710.31;;;4.70;100.00
20368;BME280;10343;52.402;9.796;2022-12-07T12:00:03;100709.44;;;4.77;100.00
20368;BME280;10343;52.402;9.796;2022-12-07T12:02:36;100699.78;;;4.62;100.00
20368;BME280;10343;52.402;9.796;2022-12-07T12:05:16;100704.13;;;4.58;100.00
20368;BME280;10343;52.402;9.796;2022-12-07T12:07:48;100698.03;;;4.87;100.00
20368;BME280;10343;52.402;9.796;2022-12-07T12:10:42;100696.31;;;4.96;100.00
20368;BME280;10343;52.402;9.796;2022-12-07T12:13:27;100691.03;;;5.30;100.00
20368;BME280;10343;52.402;9.796;2022-12-07T12:16:38;100684.94;;;5.04;100.00
20368;BME280;10343;52.402;9.796;2022-12-07T12:19:24;100685.78;;;5.20;100.00
20368;BME280;10343;52.402;9.796;2022-12-07T12:22:06;100687.53;;;5.26;100.00
20368;BME280;10343;52.402;9.796;2022-12-07T12:24:37;100685.75;;;5.42;100.00
20368;BME280;10343;52.402;9.796;2022-12-07T12:27:15;100683.97;;;5.50;100.00
20368;BME280;10343;52.402;9.796;2022-12-07T12:29:53;100676.97;;;5.40;100.00
20368;BME280;10343;52.402;9.796;2022-12-07T12:32:34;100677.03;;;5.01;100.00
20368;BME280;10343;52.402;9.796;2022-12-07T12:35:28;100677.91;;;5.13;100.00
20368;BME280;10343;52.402;9.796;2022-12-07T12:40:57;100666.53;;;5.07;100.00
20368;BME280;10343;52.402;9.796;2022-12-07T12:43:56;100659.53;;;5.11;100.00
20368;BME280;10343;52.402;9.796;2022-12-07T12:46:50;100661.28;;;4.84;100.00
20368;BME280;10343;52.402;9.796;2022-12-07T12:49:55;100658.66;;;5.04;100.00
20368;BME280;10343;52.402;9.796;2022-12-07T12:53:00;100663.91;;;5.17;100.00
20368;BME280;10343;52.402;9.796;2022-12-07T12:58:37;100658.63;;;5.00;97.97
20368;BME280;10343;52.402;9.796;2022-12-07T13:01:33;100654.25;;;5.26;100.00
20368;BME280;10343;52.402;9.796;2022-12-07T13:07:01;100658.56;;;5.51;97.95
20368;BME280;10343;52.402;9.796;2022-12-07T13:09:32;100655.97;;;5.31;95.61
20368;BME280;10343;52.402;9.796;2022-12-07T13:12:05;100647.13;;;5.61;97.08
20368;BME280;10343;52.402;9.796;2022-12-07T13:14:54;100649.78;;;5.58;93.36
20368;BME280;10343;52.402;9.796;2022-12-07T13:17:58;100646.28;;;5.47;92.41
20368;BME280;10343;52.402;9.796;2022-12-07T13:20:47;100648.00;;;5.60;92.61
20368;BME280;10343;52.402;9.796;2022-12-07T13:23:23;100648.94;;;5.45;92.41
20368;BME280;10343;52.402;9.796;2022-12-07T13:25:59;100641.91;;;5.50;91.65
20368;BME280;10343;52.402;9.796;2022-12-07T13:28:35;100639.28;;;5.47;92.35
20368;BME280;10343;52.402;9.796;2022-12-07T13:31:24;100640.22;;;5.24;93.15
20368;BME280;10343;52.402;9.796;2022-12-07T13:33:56;100641.06;;;5.42;93.00
20368;BME280;10343;52.402;9.796;2022-12-07T13:36:26;100635.78;;;5.45;92.48
20368;BME280;10343;52.402;9.796;2022-12-07T13:38:57;100640.19;;;5.44;93.19
20368;BME280;10343;52.402;9.796;2022-12-07T13:41:26;100638.38;;;5.48;92.85
20368;BME280;10343;52.402;9.796;2022-12-07T13:44:01;100640.97;;;5.67;93.85
20368;BME280;10343;52.402;9.796;2022-12-07T13:46:43;100633.03;;;5.79;92.66
20368;BME280;10343;52.402;9.796;2022-12-07T13:49:19;100630.47;;;5.67;91.83
20368;BME280;10343;52.402;9.796;2022-12-07T13:51:48;100631.31;;;5.69;91.51
20368;BME280;10343;52.402;9.796;2022-12-07T13:54:18;100626.13;;;5.53;90.41
20368;BME280;10343;52.402;9.796;2022-12-07T13:56:49;100620.88;;;5.41;90.17
20368;BME280;10343;52.402;9.796;2022-12-07T13:59:19;100622.69;;;5.30;91.17
20368;BME280;10343;52.402;9.796;2022-12-07T14:01:50;100620.94;;;5.25;92.52
20368;BME280;10343;52.402;9.796;2022-12-07T14:04:30;100611.31;;;5.20;91.85
20368;BME280;10343;52.402;9.796;2022-12-07T14:06:59;100618.31;;;5.25;92.29
20368;BME280;10343;52.402;9.796;2022-12-07T14:09:30;100615.69;;;5.25;92.16
20368;BME280;10343;52.402;9.796;2022-12-07T14:11:58;100618.31;;;5.18;92.07
20368;BME280;10343;52.402;9.796;2022-12-07T14:14:29;100616.53;;;5.26;92.10
20368;BME280;10343;52.402;9.796;2022-12-07T14:17:12;100618.31;;;5.15;91.29
20368;BME280;10343;52.402;9.796;2022-12-07T14:19:51;100625.31;;;5.22;92.23
20368;BME280;10343;52.402;9.796;2022-12-07T14:22:24;100622.69;;;5.26;92.78
20368;BME280;10343;52.402;9.796;2022-12-07T14:25:20;100621.84;;;5.15;92.70
20368;BME280;10343;52.402;9.796;2022-12-07T14:27:53;100629.72;;;5.21;92.96
20368;BME280;10343;52.402;9.796;2022-12-07T14:30:25;100619.22;;;5.15;91.71
20368;BME280;10343;52.402;9.796;2022-12-07T14:32:56;100620.97;;;5.13;90.70
20368;BME280;10343;52.402;9.796;2022-12-07T14:35:26;100622.75;;;5.02;91.16
20368;BME280;10343;52.402;9.796;2022-12-07T14:37:54;100626.22;;;5.04;91.64
20368;BME280;10343;52.402;9.796;2022-12-07T14:40:28;100626.22;;;5.04;91.85
20368;BME280;10343;52.402;9.796;2022-12-07T14:42:59;100622.72;;;4.96;92.74
20368;BME280;10343;52.402;9.796;2022-12-07T14:45:36;100628.00;;;5.02;92.80
20368;BME280;10343;52.402;9.796;2022-12-07T14:48:07;100618.34;;;5.05;92.14
20368;BME280;10343;52.402;9.796;2022-12-07T14:50:59;100625.38;;;4.68;91.96
20368;BME280;10343;52.402;9.796;2022-12-07T14:53:49;100626.25;;;4.79;93.30
20368;BME280;10343;52.402;9.796;2022-12-07T14:56:25;100633.25;;;4.89;93.09
20368;BME280;10343;52.402;9.796;2022-12-07T14:58:54;100635.00;;;4.93;93.15
20368;BME280;10343;52.402;9.796;2022-12-07T15:01:22;100621.88;;;4.93;92.25
20368;BME280;10343;52.402;9.796;2022-12-07T15:03:50;100628.00;;;4.96;92.42
20368;BME280;10343;52.402;9.796;2022-12-07T15:06:19;100636.75;;;4.88;92.44
20368;BME280;10343;52.402;9.796;2022-12-07T15:08:47;100639.38;;;4.79;93.38
20368;BME280;10343;52.402;9.796;2022-12-07T15:11:17;100635.88;;;4.65;93.50
20368;BME280;10343;52.402;9.796;2022-12-07T15:13:47;100628.00;;;4.58;93.97
20368;BME280;10343;52.402;9.796;2022-12-07T15:16:34;100635.88;;;4.68;94.09
20368;BME280;10343;52.402;9.796;2022-12-07T15:19:23;100637.66;;;4.67;94.43
20368;BME280;10343;52.402;9.796;2022-12-07T15:21:56;100633.25;;;4.65;94.29
20368;BME280;10343;52.402;9.796;2022-12-07T15:24:27;100633.28;;;4.63;95.29
20368;BME280;10343;52.402;9.796;2022-12-07T15:26:56;100629.75;;;4.63;94.34
20368;BME280;10343;52.402;9.796;2022-12-07T15:29:27;100622.75;;;4.58;94.82
20368;BME280;10343;52.402;9.796;2022-12-07T15:31:56;100625.41;;;4.60;94.47
20368;BME280;10343;52.402;9.796;2022-12-07T15:34:26;100622.75;;;4.68;94.82
20368;BME280;10343;52.402;9.796;2022-12-07T15:37:05;100627.16;;;4.66;94.37
20368;BME280;10343;52.402;9.796;2022-12-07T15:39:36;100622.75;;;4.62;95.01
20368;BME280;10343;52.402;9.796;2022-12-07T15:42:05;100624.50;;;4.58;94.92
20368;BME280;10343;52.402;9.796;2022-12-07T15:44:35;100620.09;;;4.46;94.87
20368;BME280;10343;52.402;9.796;2022-12-07T15:47:21;100625.38;;;4.49;95.38
20368;BME280;10343;52.402;9.796;2022-12-07T15:49:49;100627.09;;;4.32;96.04
20368;BME280;10343;52.402;9.796;2022-12-07T15:52:18;100624.47;;;4.35;96.16
20368;BME280;10343;52.402;9.796;2022-12-07T15:54:47;100624.47;;;4.32;96.10
20368;BME280;10343;52.402;9.796;2022-12-07T15:57:15;100631.47;;;4.30;95.92
20368;BME280;10343;52.402;9.796;2022-12-07T15:59:52;100632.31;;;4.24;96.47
20368;BME280;10343;52.402;9.796;2022-12-07T16:02:20;100621.84;;;4.35;96.09
20368;BME280;10343;52.402;9.796;2022-12-07T16:04:49;100623.63;;;4.45;95.29
20368;BME280;10343;52.402;9.796;2022-12-07T16:07:17;100621.88;;;4.55;95.15
20368;BME280;10343;52.402;9.796;2022-12-07T16:09:46;100617.50;;;4.65;94.26
20368;BME280;10343;52.402;9.796;2022-12-07T16:12:16;100621.00;;;4.44;94.70